createdAt,value
2018-07-04T01:32:07.340Z,46.48
2018-07-04T01:34:46.663Z,46.65
2018-07-04T01:37:25.861Z,46.48
2018-07-04T01:40:05.251Z,46.40
2018-07-04T01:42:44.875Z,46.56
2018-07-04T01:45:24.449Z,46.61
2018-07-04T01:48:04.968Z,46.68
2018-07-04T01:50:44.462Z,46.89
2018-07-04T01:53:24.154Z,46.92
2018-07-04T01:56:03.306Z,46.86
2018-07-04T01:58:42.930Z,46.94
2018-07-04T02:01:22.163Z,47.11
2018-07-04T02:04:01.658Z,47.24
2018-07-04T02:06:41.032Z,47.63
2018-07-04T02:09:20.302Z,47.67
2018-07-04T02:11:59.700Z,47.67
2018-07-04T02:14:39.351Z,47.64
2018-07-04T02:17:18.357Z,47.62
2018-07-04T02:19:57.587Z,47.68
2018-07-04T02:22:36.854Z,47.79
2018-07-04T02:25:17.096Z,48.13
2018-07-04T02:27:56.672Z,48.21
2018-07-04T02:30:36.700Z,48.23
2018-07-04T02:33:15.845Z,48.37
2018-07-04T02:35:54.946Z,48.38
2018-07-04T02:38:34.696Z,48.67
2018-07-04T02:41:13.624Z,48.98
2018-07-04T02:43:52.923Z,49.23
2018-07-04T02:46:37.419Z,49.63
2018-07-04T02:49:16.859Z,49.65
2018-07-04T02:51:56.066Z,49.88
2018-07-04T02:54:36.032Z,49.96
2018-07-04T02:57:15.480Z,50.16
2018-07-04T02:59:54.613Z,50.49
2018-07-04T03:02:33.570Z,50.44
2018-07-04T03:05:13.059Z,50.43
2018-07-04T03:07:52.395Z,50.53
2018-07-04T03:10:32.270Z,50.56
2018-07-04T03:13:11.538Z,50.53
2018-07-04T03:15:50.809Z,50.67
2018-07-04T03:18:30.482Z,50.63
2018-07-04T03:21:09.697Z,50.69
2018-07-04T03:23:48.754Z,50.79
2018-07-04T03:26:27.744Z,50.94
2018-07-04T03:29:07.000Z,51.03
2018-07-04T03:31:49.044Z,50.90
2018-07-04T03:34:28.319Z,51.23
2018-07-04T03:37:09.188Z,51.23
2018-07-04T03:39:48.270Z,51.26
2018-07-04T03:42:27.670Z,51.20
2018-07-04T03:45:06.741Z,51.15
2018-07-04T03:47:45.853Z,51.17
2018-07-04T03:50:25.267Z,51.10
2018-07-04T03:53:04.590Z,51.13
2018-07-04T03:55:43.875Z,51.19
2018-07-04T03:58:23.527Z,51.25
2018-07-04T04:01:02.739Z,51.39
2018-07-04T04:03:42.251Z,51.38
2018-07-04T04:06:21.376Z,51.43
2018-07-04T04:09:00.838Z,51.54
2018-07-04T04:11:43.968Z,51.67
2018-07-04T04:14:23.468Z,51.60
2018-07-04T04:17:02.626Z,51.67
2018-07-04T04:19:42.476Z,51.76
2018-07-04T04:22:21.981Z,51.91
2018-07-04T04:25:01.420Z,51.93
2018-07-04T04:27:40.843Z,51.92
2018-07-04T04:30:20.101Z,51.86
2018-07-04T04:32:58.971Z,51.90
2018-07-04T04:35:40.842Z,51.86
2018-07-04T04:38:20.068Z,51.81
2018-07-04T04:40:59.666Z,51.68
2018-07-04T04:43:38.813Z,51.67
2018-07-04T04:46:18.019Z,51.74
2018-07-04T04:48:58.111Z,51.66
2018-07-04T04:51:37.171Z,51.65
2018-07-04T04:54:16.385Z,51.68
2018-07-04T04:56:55.528Z,51.64
2018-07-04T04:59:34.822Z,51.73
2018-07-04T05:02:13.780Z,51.72
2018-07-04T05:04:52.957Z,51.69
2018-07-04T05:07:31.817Z,51.58
2018-07-04T05:10:11.117Z,51.64
2018-07-04T05:12:50.664Z,51.52
2018-07-04T05:15:31.892Z,51.63
2018-07-04T05:18:11.408Z,51.83
2018-07-04T05:20:50.853Z,51.59
2018-07-04T05:23:29.916Z,51.72
2018-07-04T05:26:11.193Z,51.64
2018-07-04T05:28:50.362Z,51.52
2018-07-04T05:31:29.411Z,51.25
2018-07-04T05:34:08.881Z,51.19
2018-07-04T05:36:47.852Z,51.17
2018-07-04T05:39:27.421Z,51.11
2018-07-04T05:42:06.911Z,51.34
2018-07-04T05:44:46.796Z,51.05
2018-07-04T05:47:26.857Z,50.96
2018-07-04T05:50:06.500Z,50.79
2018-07-04T05:52:46.043Z,50.33
2018-07-04T05:55:25.955Z,49.60
2018-07-04T05:58:05.563Z,49.12
2018-07-04T06:00:46.190Z,48.87
2018-07-04T06:03:25.285Z,48.65
2018-07-04T06:06:04.760Z,48.15
2018-07-04T06:08:44.176Z,47.71
2018-07-04T06:11:24.290Z,47.26
2018-07-04T06:14:03.504Z,46.65
2018-07-04T06:16:42.964Z,46.18
2018-07-04T06:19:22.072Z,46.17
2018-07-04T06:22:02.149Z,45.47
2018-07-04T06:24:41.190Z,45.34
2018-07-04T06:27:20.880Z,45.10
2018-07-04T06:30:05.098Z,44.81
2018-07-04T06:32:45.181Z,44.83
2018-07-04T06:35:24.304Z,44.68
2018-07-04T06:37:51.191Z,43.81
2018-07-04T06:40:19.391Z,43.16
2018-07-04T06:42:52.513Z,42.72
2018-07-04T06:45:20.610Z,41.88
2018-07-04T06:47:47.424Z,41.20
2018-07-04T06:50:14.702Z,40.46
2018-07-04T06:52:41.878Z,40.04
2018-07-04T06:55:08.911Z,40.10
2018-07-04T06:57:35.930Z,40.34
2018-07-04T07:00:06.183Z,40.04
2018-07-04T07:02:33.340Z,39.69
2018-07-04T07:05:19.092Z,39.78
2018-07-04T07:08:01.010Z,39.75
2018-07-04T07:10:40.516Z,39.84
2018-07-04T07:13:21.084Z,39.49
2018-07-04T07:15:59.888Z,39.16
2018-07-04T07:18:39.352Z,38.06
2018-07-04T07:21:19.409Z,37.24
2018-07-04T07:23:59.363Z,36.26
2018-07-04T07:26:38.681Z,35.18
2018-07-04T07:29:17.844Z,34.89
2018-07-04T07:31:57.105Z,34.35
2018-07-04T07:34:36.578Z,33.79
2018-07-04T07:37:15.923Z,33.40
2018-07-04T07:39:55.402Z,32.88
2018-07-04T07:42:34.433Z,32.86
2018-07-04T07:45:14.334Z,32.32
2018-07-04T07:47:53.578Z,31.70
2018-07-04T07:50:33.395Z,31.00
2018-07-04T07:53:12.755Z,31.72
2018-07-04T07:55:52.784Z,31.56
2018-07-04T07:58:32.327Z,31.46
2018-07-04T08:01:11.677Z,30.96
2018-07-04T08:03:50.645Z,30.98
2018-07-04T08:09:13.547Z,29.09
2018-07-04T08:11:54.428Z,29.47
2018-07-04T08:14:33.686Z,29.36
2018-07-04T08:17:13.013Z,29.30
2018-07-04T08:19:52.042Z,29.17
2018-07-04T08:22:31.147Z,28.90
2018-07-04T08:25:10.312Z,28.04
2018-07-04T08:27:49.705Z,27.46
2018-07-04T08:30:29.086Z,25.96
2018-07-04T08:33:08.616Z,26.47
2018-07-04T08:35:48.394Z,26.13
2018-07-04T08:38:27.540Z,25.82
2018-07-04T08:41:07.175Z,25.63
2018-07-04T08:43:46.090Z,24.77
2018-07-04T08:46:26.384Z,24.54
2018-07-04T08:49:05.588Z,25.15
2018-07-04T08:51:45.081Z,24.91
2018-07-04T08:54:24.193Z,25.08
2018-07-04T08:57:04.289Z,24.97
2018-07-04T08:59:43.548Z,24.93
2018-07-04T09:02:22.628Z,24.76
2018-07-04T09:05:02.260Z,24.19
2018-07-04T09:07:42.384Z,24.60
2018-07-04T09:10:21.672Z,25.13
2018-07-04T09:13:02.275Z,24.77
2018-07-04T09:15:41.533Z,24.76
2018-07-04T09:18:21.123Z,25.05
2018-07-04T09:21:00.784Z,25.43
2018-07-04T09:23:40.324Z,24.87
2018-07-04T09:26:21.415Z,24.45
2018-07-04T09:29:00.786Z,24.23
2018-07-04T09:31:39.726Z,23.35
2018-07-04T09:34:19.218Z,23.25
2018-07-04T09:36:58.309Z,22.45
2018-07-04T09:39:38.456Z,22.85
2018-07-04T09:42:18.865Z,21.76
2018-07-04T09:44:58.363Z,22.67
2018-07-04T09:47:38.317Z,21.48
2018-07-04T09:50:18.059Z,21.90
2018-07-04T09:52:57.599Z,21.09
2018-07-04T09:55:37.562Z,21.88
2018-07-04T09:58:17.746Z,21.99
2018-07-04T10:01:03.850Z,21.80
2018-07-04T10:03:46.270Z,21.44
2018-07-04T10:06:27.211Z,21.73
2018-07-04T10:09:06.545Z,20.44
2018-07-04T10:11:45.951Z,21.01
2018-07-04T10:14:25.287Z,20.37
2018-07-04T10:17:05.567Z,21.13
2018-07-04T10:19:45.724Z,20.71
2018-07-04T10:22:26.340Z,20.97
2018-07-04T10:25:07.492Z,20.88
2018-07-04T10:27:47.663Z,21.51
2018-07-04T10:30:27.791Z,21.14
2018-07-04T10:33:08.327Z,20.27
2018-07-04T10:35:48.679Z,20.98
2018-07-04T10:38:28.001Z,20.69
2018-07-04T10:41:07.340Z,20.82
2018-07-04T10:43:54.004Z,20.88
2018-07-04T10:46:35.420Z,20.37
2018-07-04T10:49:16.481Z,20.73
2018-07-04T10:51:55.563Z,21.42
2018-07-04T10:54:35.152Z,20.76
2018-07-04T10:57:16.073Z,20.45
2018-07-04T10:59:57.131Z,20.06
2018-07-04T11:02:37.794Z,19.87
2018-07-04T11:05:18.866Z,19.58
2018-07-04T11:07:59.272Z,20.40
2018-07-04T11:10:40.403Z,20.48
2018-07-04T11:13:23.771Z,20.91
2018-07-04T11:16:05.591Z,21.19
2018-07-04T11:18:47.684Z,20.64
2018-07-04T11:21:29.444Z,21.25
2018-07-04T11:24:10.557Z,20.96
2018-07-04T11:26:56.884Z,21.23
2018-07-04T11:32:26.559Z,20.22
2018-07-04T11:35:06.248Z,19.79
2018-07-04T11:37:45.997Z,19.10
2018-07-04T11:40:25.194Z,19.61
2018-07-04T11:43:04.238Z,17.74
2018-07-04T11:45:43.460Z,19.23
2018-07-04T11:48:14.473Z,19.06
2018-07-04T11:50:44.103Z,19.06
2018-07-04T11:53:12.493Z,19.77
2018-07-04T11:55:39.552Z,19.82
2018-07-04T11:58:07.115Z,19.39
2018-07-04T12:00:34.162Z,19.71
2018-07-04T12:03:02.113Z,20.02
2018-07-04T12:05:42.229Z,20.00
2018-07-04T12:08:09.136Z,19.57
2018-07-04T12:10:35.928Z,19.31
2018-07-04T12:13:04.876Z,19.06
2018-07-04T12:15:32.828Z,19.20
2018-07-04T12:18:02.838Z,19.40
2018-07-04T12:20:30.372Z,19.54
2018-07-04T12:22:58.038Z,19.35
2018-07-04T12:25:25.719Z,19.53
2018-07-04T12:27:53.072Z,19.13
2018-07-04T12:30:20.037Z,19.35
2018-07-04T12:32:48.199Z,19.00
2018-07-04T12:35:15.744Z,19.26
2018-07-04T12:37:42.873Z,19.07
2018-07-04T12:40:09.968Z,19.16
2018-07-04T12:42:37.216Z,19.11
2018-07-04T12:45:04.802Z,19.70
2018-07-04T12:47:31.731Z,19.94
2018-07-04T12:49:59.227Z,19.91
2018-07-04T12:52:26.295Z,20.13
2018-07-04T12:55:07.098Z,20.82
2018-07-04T12:57:47.532Z,20.84
2018-07-04T13:00:26.568Z,20.37
2018-07-04T13:03:06.063Z,20.47
2018-07-04T13:05:45.470Z,20.26
2018-07-04T13:08:24.843Z,20.76
2018-07-04T13:11:04.499Z,20.21
2018-07-04T13:13:45.015Z,20.60
2018-07-04T13:16:25.844Z,20.99
2018-07-04T13:19:05.090Z,20.83
2018-07-04T13:21:44.085Z,21.18
2018-07-04T13:24:23.998Z,21.85
2018-07-04T13:27:03.459Z,21.25
2018-07-04T13:29:44.260Z,21.40
2018-07-04T13:32:24.132Z,21.04
2018-07-04T13:35:05.086Z,20.77
2018-07-04T13:37:47.444Z,21.28
2018-07-04T13:40:28.136Z,21.45
2018-07-04T13:43:08.312Z,21.19
2018-07-04T13:45:50.565Z,20.61
2018-07-04T13:48:31.201Z,20.24
2018-07-04T13:51:11.661Z,20.73
2018-07-04T13:53:51.616Z,20.88
2018-07-04T13:56:31.518Z,20.53
2018-07-04T13:59:15.319Z,20.06
2018-07-04T14:01:55.002Z,19.90
2018-07-04T14:07:24.596Z,19.98
2018-07-04T14:10:06.059Z,20.47
2018-07-04T14:12:51.101Z,20.56
2018-07-04T14:15:31.261Z,20.89
2018-07-04T14:18:10.869Z,20.71
2018-07-04T14:20:51.166Z,21.27
2018-07-04T14:23:31.648Z,21.22
2018-07-04T14:26:14.240Z,20.71
2018-07-04T14:28:54.439Z,21.11
2018-07-04T14:31:41.241Z,21.96
2018-07-04T14:34:25.397Z,22.45
2018-07-04T14:37:06.064Z,22.83
2018-07-04T14:39:46.662Z,23.27
2018-07-04T14:42:25.829Z,23.24
2018-07-04T14:45:07.516Z,23.35
2018-07-04T14:47:48.404Z,23.29
2018-07-04T14:50:32.910Z,23.27
2018-07-04T14:53:12.692Z,23.30
2018-07-04T14:55:57.654Z,23.79
2018-07-04T14:58:36.968Z,23.86
2018-07-04T15:01:17.638Z,24.16
2018-07-04T15:04:00.352Z,23.94
2018-07-04T15:06:40.640Z,24.00
2018-07-04T15:09:21.658Z,24.35
2018-07-04T15:12:06.070Z,23.89
2018-07-04T15:14:49.105Z,24.53
2018-07-04T15:17:30.114Z,24.54
2018-07-04T15:20:10.339Z,24.28
2018-07-04T15:22:53.717Z,24.56
2018-07-04T15:25:34.470Z,24.30
2018-07-04T15:28:15.859Z,24.60
2018-07-04T15:33:40.969Z,24.95
2018-07-04T15:36:21.702Z,24.85
2018-07-04T15:39:01.249Z,24.70
2018-07-04T15:41:40.982Z,24.54
2018-07-04T15:44:20.988Z,24.69
2018-07-04T15:47:02.229Z,25.05
2018-07-04T15:49:47.265Z,25.47
2018-07-04T15:52:26.640Z,25.78
2018-07-04T15:55:06.320Z,25.86
2018-07-04T15:57:46.736Z,26.22
2018-07-04T16:00:33.117Z,26.21
2018-07-04T16:03:13.097Z,26.27
2018-07-04T16:05:53.203Z,26.62
2018-07-04T16:08:33.338Z,26.60
2018-07-04T16:11:14.310Z,26.97
2018-07-04T16:13:54.696Z,26.75
2018-07-04T16:16:35.556Z,26.52
2018-07-04T16:19:15.639Z,26.25
2018-07-04T16:21:57.401Z,26.21
2018-07-04T16:24:36.768Z,26.28
2018-07-04T16:27:16.625Z,26.31
2018-07-04T16:29:55.910Z,25.96
2018-07-04T16:32:36.136Z,26.63
2018-07-04T16:35:15.723Z,26.84
2018-07-04T16:37:55.256Z,26.93
2018-07-04T16:40:35.826Z,27.01
2018-07-04T16:43:15.526Z,27.35
2018-07-04T16:45:56.375Z,27.55
2018-07-04T16:48:36.755Z,27.41
2018-07-04T16:51:15.980Z,27.99
2018-07-04T16:53:58.103Z,28.12
2018-07-04T16:56:37.305Z,28.27
2018-07-04T16:59:17.687Z,28.06
2018-07-04T17:01:58.068Z,28.05
2018-07-04T17:04:38.294Z,28.13
2018-07-04T17:07:18.794Z,28.34
2018-07-04T17:10:01.085Z,28.30
2018-07-04T17:15:32.657Z,28.23
2018-07-04T17:18:12.877Z,28.21
2018-07-04T17:20:53.898Z,28.22
2018-07-04T17:23:34.334Z,28.50
2018-07-04T17:26:18.375Z,28.53
2018-07-04T17:29:01.008Z,28.79
2018-07-04T17:31:41.409Z,29.06
2018-07-04T17:34:21.149Z,28.55
2018-07-04T17:37:00.675Z,28.41
2018-07-04T17:39:43.576Z,28.55
2018-07-04T17:42:24.607Z,28.73
2018-07-04T17:45:06.322Z,28.90
2018-07-04T17:47:47.287Z,28.99
2018-07-04T17:50:30.523Z,29.14
2018-07-04T17:53:10.150Z,29.08
2018-07-04T17:55:50.302Z,29.11
2018-07-04T17:58:30.029Z,29.26
2018-07-04T18:01:10.868Z,29.37
2018-07-04T18:03:50.283Z,29.38
2018-07-04T18:06:31.709Z,29.48
2018-07-04T18:09:17.254Z,29.51
2018-07-04T18:11:59.852Z,29.90
2018-07-04T18:14:39.228Z,29.98
2018-07-04T18:17:19.712Z,30.04
2018-07-04T18:20:05.457Z,30.18
2018-07-04T18:22:46.529Z,30.24
2018-07-04T18:25:26.160Z,30.21
2018-07-04T18:28:08.282Z,30.39
2018-07-04T18:30:52.009Z,30.33
2018-07-04T18:33:33.660Z,30.91
2018-07-04T18:36:15.197Z,30.65
2018-07-04T18:41:47.014Z,31.09
2018-07-04T18:44:31.170Z,31.19
2018-07-04T18:47:16.263Z,31.12
2018-07-04T18:49:56.029Z,31.09
2018-07-04T18:52:35.398Z,31.19
2018-07-04T18:55:17.207Z,31.54
2018-07-04T18:58:00.286Z,32.07
2018-07-04T19:00:41.588Z,31.60
2018-07-04T19:03:22.343Z,31.35
2018-07-04T19:06:03.024Z,31.51
2018-07-04T19:08:44.221Z,31.89
2018-07-04T19:11:27.129Z,32.08
2018-07-04T19:14:09.881Z,32.16
2018-07-04T19:16:51.047Z,32.50
2018-07-04T19:19:37.017Z,33.09
2018-07-04T19:22:17.033Z,33.06
2018-07-04T19:24:56.523Z,33.28
2018-07-04T19:27:37.748Z,33.55
2018-07-04T19:30:18.118Z,33.73
2018-07-04T19:32:58.043Z,33.88
2018-07-04T19:35:38.653Z,33.91
2018-07-04T19:38:19.865Z,33.98
2018-07-04T19:41:00.011Z,34.27
2018-07-04T19:43:40.158Z,34.50
2018-07-04T19:46:20.242Z,34.64
2018-07-04T19:49:01.497Z,34.71
2018-07-04T19:51:41.532Z,34.85
2018-07-04T19:54:21.934Z,34.95
2018-07-04T19:57:01.976Z,35.16
2018-07-04T19:59:43.264Z,35.36
2018-07-04T20:02:23.112Z,35.71
2018-07-04T20:05:04.918Z,36.04
2018-07-04T20:07:44.568Z,36.37
2018-07-04T20:10:25.150Z,36.57
2018-07-04T20:13:06.354Z,36.75
2018-07-04T20:15:47.486Z,36.93
2018-07-04T20:18:26.785Z,37.10
2018-07-04T20:21:05.817Z,37.25
2018-07-04T20:23:46.284Z,37.38
2018-07-04T20:26:25.901Z,37.60
2018-07-04T20:29:06.272Z,37.73
2018-07-04T20:31:47.968Z,37.82
2018-07-04T20:34:31.180Z,37.96
2018-07-04T20:37:11.119Z,38.15
2018-07-04T20:39:51.946Z,38.28
2018-07-04T20:42:40.060Z,38.61
2018-07-04T20:45:20.542Z,38.74
2018-07-04T20:47:59.829Z,38.88
2018-07-04T20:50:39.355Z,38.97
2018-07-04T20:53:18.495Z,39.14
2018-07-04T20:55:57.993Z,39.34
2018-07-04T20:58:37.099Z,39.51
2018-07-04T21:01:17.084Z,39.66
2018-07-04T21:03:56.264Z,39.91
2018-07-04T21:06:35.802Z,40.15
2018-07-04T21:09:15.277Z,40.42
2018-07-04T21:11:54.954Z,40.64
2018-07-04T21:14:34.106Z,40.90
2018-07-04T21:17:13.577Z,41.03
2018-07-04T21:19:52.587Z,41.21
2018-07-04T21:22:33.521Z,41.46
2018-07-04T21:25:12.544Z,41.78
2018-07-04T21:27:52.460Z,42.46
2018-07-04T21:30:31.530Z,42.64
2018-07-04T21:33:11.547Z,42.88
2018-07-04T21:35:51.141Z,42.64
2018-07-04T21:38:31.119Z,42.70
2018-07-04T21:41:11.218Z,42.65
2018-07-04T21:43:52.732Z,42.61
2018-07-04T21:46:33.145Z,42.60
2018-07-04T21:49:12.800Z,42.67
2018-07-04T21:51:52.621Z,42.71
2018-07-04T21:54:32.195Z,42.85
2018-07-04T21:57:12.058Z,42.84
2018-07-04T21:59:55.756Z,42.85
2018-07-04T22:02:36.048Z,42.81
2018-07-04T22:05:20.152Z,42.95
2018-07-04T22:08:00.201Z,43.09
2018-07-04T22:10:40.723Z,43.16
2018-07-04T22:13:19.868Z,43.18
2018-07-04T22:15:59.551Z,43.27
2018-07-04T22:18:39.066Z,43.39
2018-07-04T22:21:18.600Z,43.48
2018-07-04T22:23:58.278Z,43.54
2018-07-04T22:26:37.691Z,43.64
2018-07-04T22:29:17.848Z,43.75
2018-07-04T22:31:57.211Z,43.83
2018-07-04T22:34:37.737Z,44.04
2018-07-04T22:37:16.711Z,44.35
2018-07-04T22:39:56.563Z,44.51
2018-07-04T22:42:35.560Z,44.70
2018-07-04T22:45:15.170Z,45.00
2018-07-04T22:47:54.748Z,45.21
2018-07-04T22:50:33.964Z,45.50
2018-07-04T22:53:13.628Z,45.74
2018-07-04T22:55:53.161Z,45.76
2018-07-04T22:58:32.915Z,45.86
2018-07-04T23:01:12.767Z,46.03
2018-07-04T23:03:53.051Z,46.13
2018-07-04T23:06:32.677Z,46.16
2018-07-04T23:09:12.607Z,46.28
2018-07-04T23:11:52.712Z,46.20
2018-07-04T23:14:32.285Z,46.18
2018-07-04T23:17:11.465Z,46.37
2018-07-04T23:19:51.382Z,46.54
2018-07-04T23:22:31.182Z,46.67
2018-07-04T23:25:10.883Z,46.67
2018-07-04T23:27:50.463Z,46.66
2018-07-04T23:30:30.078Z,46.76
2018-07-04T23:33:09.132Z,46.77
2018-07-04T23:35:48.525Z,46.92
2018-07-04T23:38:28.074Z,47.19
2018-07-04T23:41:07.098Z,47.29
2018-07-04T23:43:47.144Z,47.38
2018-07-04T23:46:27.130Z,47.50
2018-07-04T23:49:07.718Z,47.60
2018-07-04T23:51:47.192Z,47.71
2018-07-04T23:54:26.493Z,47.73
2018-07-04T23:57:05.762Z,47.86
2018-07-04T23:59:45.299Z,48.11
